PWSweather.com
Personal Weather Stations
Station Observations
KVAGLENALL
West Henrico, Glen Allen, VA 23060-6503

West HenricoGlen Allen, VA 23060-6503

Lat: 37.6554, Lon: -77.5693

Elevation: 273

Station Type: Davis Vantage Pro II

www.glenallenweather.com

High Low Average
Temperature 89.4°F31.9°C 72.0°F22.2°C 78.4°F25.8°C
Dew Point 77.0°F25.0°C 68.2°F20.1°C 72.1°F22.3°C
Winds 9.0 mph 14.5 kmh Calm Calm 4.0 mph SSW6.4 kmh SSW
Wind Gusts 11.1 mph17.9 kmh -- 6.0 mph9.7 kmh
Humidity 91% 63% 82%
Pressure 30.00 in1015.9 mb 29.89 in1012.2 mb -
Precipitation 0.00 in0.0 mm - -
Hour Temp Dew Point Humidity Winds Wind Gusts Pressure Precip Precip Rate Daily Precip Total
12:00 AM 74.0°F23.3°C 70.2°F21.2°C 88% Calm Calm 2.0 mph3.2 kmh 30.00 in1015.9 mb 0.00 in0.0 mm 0.00 in0.0 mm 0.00 in0.0 mm
01:00 AM 73.1°F22.8°C 69.3°F20.7°C 88% Calm Calm -- 29.98 in1015.2 mb 0.00 in0.0 mm 0.00 in0.0 mm 0.00 in0.0 mm
02:00 AM 73.5°F23.1°C 69.4°F20.8°C 87% 3.0 mph SSE4.8 kmh SSE 5.1 mph8.2 kmh 29.96 in1014.6 mb 0.00 in0.0 mm 0.00 in0.0 mm 0.00 in0.0 mm
03:00 AM 72.8°F22.7°C 68.3°F20.2°C 86% 4.0 mph SW6.4 kmh SW 6.1 mph9.8 kmh 29.96 in1014.6 mb 0.00 in0.0 mm 0.00 in0.0 mm 0.00 in0.0 mm
04:00 AM 72.0°F22.2°C 68.2°F20.1°C 88% 3.0 mph SW4.8 kmh SW 5.1 mph8.2 kmh 29.95 in1014.2 mb 0.00 in0.0 mm 0.00 in0.0 mm 0.00 in0.0 mm
05:00 AM 72.3°F22.4°C 68.5°F20.3°C 88% 3.0 mph SW4.8 kmh SW 7.1 mph11.4 kmh 29.95 in1014.2 mb 0.00 in0.0 mm 0.00 in0.0 mm 0.00 in0.0 mm
06:00 AM 73.4°F23.0°C 68.9°F20.5°C 86% 5.0 mph SSW8.0 kmh SSW 6.1 mph9.8 kmh 29.95 in1014.2 mb 0.00 in0.0 mm 0.00 in0.0 mm 0.00 in0.0 mm
07:00 AM 74.8°F23.8°C 69.6°F20.9°C 84% 3.0 mph SW4.8 kmh SW 6.1 mph9.8 kmh 29.95 in1014.2 mb 0.00 in0.0 mm 0.00 in0.0 mm 0.00 in0.0 mm
08:00 AM 76.0°F24.4°C 70.5°F21.4°C 83% 6.0 mph SSW9.7 kmh SSW 9.1 mph14.6 kmh 29.96 in1014.6 mb 0.00 in0.0 mm 0.00 in0.0 mm 0.00 in0.0 mm
09:00 AM 81.6°F27.6°C 74.5°F23.6°C 79% 2.0 mph SSW3.2 kmh SSW 6.1 mph9.8 kmh 29.96 in1014.6 mb 0.00 in0.0 mm 0.00 in0.0 mm 0.00 in0.0 mm
10:00 AM 81.6°F27.6°C 74.1°F23.4°C 78% 6.0 mph SW9.7 kmh SW 8.1 mph13.0 kmh 29.96 in1014.6 mb 0.00 in0.0 mm 0.00 in0.0 mm 0.00 in0.0 mm
11:00 AM 83.9°F28.8°C 74.3°F23.5°C 73% 9.0 mph SW14.5 kmh SW 9.1 mph14.6 kmh 29.96 in1014.6 mb 0.00 in0.0 mm 0.00 in0.0 mm 0.00 in0.0 mm
12:00 PM 87.1°F30.6°C 77.0°F25.0°C 72% 3.0 mph SSW4.8 kmh SSW 4.0 mph6.4 kmh 29.95 in1014.2 mb 0.00 in0.0 mm 0.00 in0.0 mm 0.00 in0.0 mm
01:00 PM 88.7°F31.5°C 76.8°F24.9°C 68% 3.0 mph SW4.8 kmh SW 5.1 mph8.2 kmh 29.93 in1013.5 mb 0.00 in0.0 mm 0.00 in0.0 mm 0.00 in0.0 mm
02:00 PM 88.0°F31.1°C 73.9°F23.3°C 63% 2.0 mph S3.2 kmh S 6.1 mph9.8 kmh 29.91 in1012.9 mb 0.00 in0.0 mm 0.00 in0.0 mm 0.00 in0.0 mm
03:00 PM 89.4°F31.9°C 76.1°F24.5°C 65% 2.0 mph S3.2 kmh S 5.1 mph8.2 kmh 29.90 in1012.5 mb 0.00 in0.0 mm 0.00 in0.0 mm 0.00 in0.0 mm
04:00 PM 85.6°F29.8°C 75.6°F24.2°C 72% 3.0 mph SSW4.8 kmh SSW 7.1 mph11.4 kmh 29.89 in1012.2 mb 0.00 in0.0 mm 0.00 in0.0 mm 0.00 in0.0 mm
05:00 PM 82.8°F28.2°C 76.0°F24.4°C 80% 4.0 mph SSW6.4 kmh SSW 6.1 mph9.8 kmh 29.89 in1012.2 mb 0.00 in0.0 mm 0.00 in0.0 mm 0.00 in0.0 mm
06:00 PM 79.4°F26.3°C 75.2°F24.0°C 87% 9.0 mph SW14.5 kmh SW 9.1 mph14.6 kmh 29.91 in1012.9 mb 0.00 in0.0 mm 0.00 in0.0 mm 0.00 in0.0 mm
07:00 PM 77.0°F25.0°C 73.2°F22.9°C 88% 4.0 mph SW6.4 kmh SW 8.1 mph13.0 kmh 29.92 in1013.2 mb 0.00 in0.0 mm 0.00 in0.0 mm 0.00 in0.0 mm
08:00 PM 75.7°F24.3°C 71.2°F21.8°C 86% 3.0 mph SW4.8 kmh SW 4.0 mph6.4 kmh 29.91 in1012.9 mb 0.00 in0.0 mm 0.00 in0.0 mm 0.00 in0.0 mm
09:00 PM 74.1°F23.4°C 70.3°F21.3°C 88% Calm Calm 1.0 mph1.6 kmh 29.91 in1012.9 mb 0.01 in0.3 mm 0.00 in0.0 mm 0.01 in0.3 mm
10:00 PM 73.1°F22.8°C 70.3°F21.3°C 91% 7.0 mph S11.3 kmh S 11.1 mph17.9 kmh 29.92 in1013.2 mb 0.01 in0.3 mm 0.00 in0.0 mm 0.01 in0.3 mm
11:00 PM 73.0°F22.8°C 69.9°F21.1°C 90% 2.0 mph SW3.2 kmh SW 6.1 mph9.8 kmh 29.93 in1013.5 mb 0.00 in0.0 mm 0.00 in0.0 mm 0.01 in0.3 mm